sensor_id;sensor_type;location;lat;lon;timestamp;temperature;humidity
33699;DHT22;20032;52.436;13.312;2022-11-21T00:01:26;-1.10;99.90
33699;DHT22;20032;52.436;13.312;2022-11-21T00:03:52;-1.00;99.90
33699;DHT22;20032;52.436;13.312;2022-11-21T00:06:18;-1.00;99.90
33699;DHT22;20032;52.436;13.312;2022-11-21T00:08:44;-1.00;99.90
33699;DHT22;20032;52.436;13.312;2022-11-21T00:11:10;-1.00;99.90
33699;DHT22;20032;52.436;13.312;2022-11-21T00:13:35;-0.80;99.90
33699;DHT22;20032;52.436;13.312;2022-11-21T00:16:03;-0.80;99.90
33699;DHT22;20032;52.436;13.312;2022-11-21T00:18:29;-0.70;99.90
33699;DHT22;20032;52.436;13.312;2022-11-21T00:20:55;-0.70;99.90
33699;DHT22;20032;52.436;13.312;2022-11-21T00:23:20;-0.60;99.90
33699;DHT22;20032;52.436;13.312;2022-11-21T00:25:46;-0.70;99.90
33699;DHT22;20032;52.436;13.312;2022-11-21T00:28:11;-0.60;99.90
33699;DHT22;20032;52.436;13.312;2022-11-21T00:30:37;-0.70;99.90
33699;DHT22;20032;52.436;13.312;2022-11-21T00:33:02;-0.70;99.90
33699;DHT22;20032;52.436;13.312;2022-11-21T00:35:27;-0.60;99.90
33699;DHT22;20032;52.436;13.312;2022-11-21T00:37:54;-0.50;99.90
33699;DHT22;20032;52.436;13.312;2022-11-21T00:40:20;-0.50;99.90
33699;DHT22;20032;52.436;13.312;2022-11-21T00:42:45;-0.60;99.90
33699;DHT22;20032;52.436;13.312;2022-11-21T00:45:11;-0.60;99.90
33699;DHT22;20032;52.436;13.312;2022-11-21T00:47:36;-0.60;99.90
33699;DHT22;20032;52.436;13.312;2022-11-21T00:50:02;-0.50;99.90
33699;DHT22;20032;52.436;13.312;2022-11-21T00:52:28;-0.40;99.90
33699;DHT22;20032;52.436;13.312;2022-11-21T00:54:53;-0.40;99.90
33699;DHT22;20032;52.436;13.312;2022-11-21T00:57:19;-0.50;99.90
33699;DHT22;20032;52.436;13.312;2022-11-21T00:59:44;-0.50;99.90
33699;DHT22;20032;52.436;13.312;2022-11-21T01:02:09;-0.50;99.90
33699;DHT22;20032;52.436;13.312;2022-11-21T01:04:35;-0.50;99.90
33699;DHT22;20032;52.436;13.312;2022-11-21T01:07:00;-0.50;99.90
33699;DHT22;20032;52.436;13.312;2022-11-21T01:09:26;-0.50;99.90
33699;DHT22;20032;52.436;13.312;2022-11-21T01:11:53;-0.50;99.90
33699;DHT22;20032;52.436;13.312;2022-11-21T01:14:18;-0.50;99.90
33699;DHT22;20032;52.436;13.312;2022-11-21T01:16:44;-0.50;99.90
33699;DHT22;20032;52.436;13.312;2022-11-21T01:19:09;-0.50;99.90
33699;DHT22;20032;52.436;13.312;2022-11-21T01:21:35;-0.60;99.90
33699;DHT22;20032;52.436;13.312;2022-11-21T01:24:01;-0.60;99.90
33699;DHT22;20032;52.436;13.312;2022-11-21T01:26:28;-0.60;99.90
33699;DHT22;20032;52.436;13.312;2022-11-21T01:28:54;-0.50;99.90
33699;DHT22;20032;52.436;13.312;2022-11-21T01:31:23;-0.60;99.90
33699;DHT22;20032;52.436;13.312;2022-11-21T01:33:49;-0.60;99.90
33699;DHT22;20032;52.436;13.312;2022-11-21T01:36:17;-0.60;99.90
33699;DHT22;20032;52.436;13.312;2022-11-21T01:38:46;-0.60;99.90
33699;DHT22;20032;52.436;13.312;2022-11-21T01:41:14;-0.60;99.90
33699;DHT22;20032;52.436;13.312;2022-11-21T01:43:40;-0.60;99.90
33699;DHT22;20032;52.436;13.312;2022-11-21T01:54:55;-0.60;99.90
33699;DHT22;20032;52.436;13.312;2022-11-21T01:59:11;-0.50;99.90
33699;DHT22;20032;52.436;13.312;2022-11-21T02:01:38;-0.50;99.90
33699;DHT22;20032;52.436;13.312;2022-11-21T02:04:05;-0.50;99.90
33699;DHT22;20032;52.436;13.312;2022-11-21T02:06:32;-0.50;99.90
33699;DHT22;20032;52.436;13.312;2022-11-21T02:09:00;-0.40;99.90
33699;DHT22;20032;52.436;13.312;2022-11-21T02:11:34;-0.60;99.90
33699;DHT22;20032;52.436;13.312;2022-11-21T02:14:01;-0.50;99.90
33699;DHT22;20032;52.436;13.312;2022-11-21T02:16:27;-0.50;99.90
33699;DHT22;20032;52.436;13.312;2022-11-21T02:18:53;-0.50;99.90
33699;DHT22;20032;52.436;13.312;2022-11-21T02:21:27;-0.70;99.90
33699;DHT22;20032;52.436;13.312;2022-11-21T02:26:31;-0.70;99.90
33699;DHT22;20032;52.436;13.312;2022-11-21T02:28:57;-0.60;99.90
33699;DHT22;20032;52.436;13.312;2022-11-21T02:31:22;-0.50;99.90
33699;DHT22;20032;52.436;13.312;2022-11-21T02:33:48;-0.50;99.90
33699;DHT22;20032;52.436;13.312;2022-11-21T02:36:34;-0.30;99.90
33699;DHT22;20032;52.436;13.312;2022-11-21T02:39:01;-0.20;99.90
33699;DHT22;20032;52.436;13.312;2022-11-21T02:41:28;-0.20;99.90
33699;DHT22;20032;52.436;13.312;2022-11-21T02:43:59;-0.10;99.90
33699;DHT22;20032;52.436;13.312;2022-11-21T02:46:27;-0.10;99.90
33699;DHT22;20032;52.436;13.312;2022-11-21T02:48:54;0.00;99.90
33699;DHT22;20032;52.436;13.312;2022-11-21T02:51:20;0.00;99.90
33699;DHT22;20032;52.436;13.312;2022-11-21T02:53:45;0.00;99.90
33699;DHT22;20032;52.436;13.312;2022-11-21T02:56:11;0.00;99.90
33699;DHT22;20032;52.436;13.312;2022-11-21T02:58:36;0.00;99.90
33699;DHT22;20032;52.436;13.312;2022-11-21T03:01:02;0.10;99.90
33699;DHT22;20032;52.436;13.312;2022-11-21T03:03:27;0.00;99.90
33699;DHT22;20032;52.436;13.312;2022-11-21T03:05:54;0.00;99.90
33699;DHT22;20032;52.436;13.312;2022-11-21T03:08:20;-0.10;99.90
33699;DHT22;20032;52.436;13.312;2022-11-21T03:10:45;-0.10;99.90
33699;DHT22;20032;52.436;13.312;2022-11-21T03:13:11;0.00;99.90
33699;DHT22;20032;52.436;13.312;2022-11-21T03:15:36;-0.10;99.90
33699;DHT22;20032;52.436;13.312;2022-11-21T03:18:02;-0.10;99.90
33699;DHT22;20032;52.436;13.312;2022-11-21T03:20:29;-0.10;99.90
33699;DHT22;20032;52.436;13.312;2022-11-21T03:22:55;0.00;99.90
33699;DHT22;20032;52.436;13.312;2022-11-21T03:25:20;-0.10;99.90
33699;DHT22;20032;52.436;13.312;2022-11-21T03:27:48;-0.10;99.90
33699;DHT22;20032;52.436;13.312;2022-11-21T03:30:14;-0.20;99.90
33699;DHT22;20032;52.436;13.312;2022-11-21T03:32:40;-0.20;99.90
33699;DHT22;20032;52.436;13.312;2022-11-21T03:35:06;-0.30;99.90
33699;DHT22;20032;52.436;13.312;2022-11-21T03:37:32;-0.30;99.90
33699;DHT22;20032;52.436;13.312;2022-11-21T03:39:57;-0.30;99.90
33699;DHT22;20032;52.436;13.312;2022-11-21T03:42:23;-0.30;99.90
33699;DHT22;20032;52.436;13.312;2022-11-21T03:44:48;-0.30;99.90
33699;DHT22;20032;52.436;13.312;2022-11-21T03:47:14;-0.30;99.90
33699;DHT22;20032;52.436;13.312;2022-11-21T03:49:39;-0.40;99.90
33699;DHT22;20032;52.436;13.312;2022-11-21T03:52:04;-0.40;99.90
33699;DHT22;20032;52.436;13.312;2022-11-21T03:54:30;-0.40;99.90
33699;DHT22;20032;52.436;13.312;2022-11-21T03:56:55;-0.40;99.90
33699;DHT22;20032;52.436;13.312;2022-11-21T03:59:21;-0.40;99.90
33699;DHT22;20032;52.436;13.312;2022-11-21T04:01:46;-0.30;99.90
33699;DHT22;20032;52.436;13.312;2022-11-21T04:04:12;-0.20;99.90
33699;DHT22;20032;52.436;13.312;2022-11-21T04:06:37;-0.30;99.90
33699;DHT22;20032;52.436;13.312;2022-11-21T04:09:03;-0.30;99.90
33699;DHT22;20032;52.436;13.312;2022-11-21T04:11:28;-0.30;99.90
33699;DHT22;20032;52.436;13.312;2022-11-21T04:13:54;-0.30;99.90
33699;DHT22;20032;52.436;13.312;2022-11-21T04:16:19;-0.20;99.90
33699;DHT22;20032;52.436;13.312;2022-11-21T04:18:45;-0.20;99.90
33699;DHT22;20032;52.436;13.312;2022-11-21T04:21:11;-0.10;99.90
33699;DHT22;20032;52.436;13.312;2022-11-21T04:23:36;-0.10;99.90
33699;DHT22;20032;52.436;13.312;2022-11-21T04:26:02;-0.10;99.90
33699;DHT22;20032;52.436;13.312;2022-11-21T04:28:28;0.00;99.90
33699;DHT22;20032;52.436;13.312;2022-11-21T04:30:54;0.00;99.90
33699;DHT22;20032;52.436;13.312;2022-11-21T04:33:20;-0.10;99.90
33699;DHT22;20032;52.436;13.312;2022-11-21T04:35:45;-0.10;99.90
33699;DHT22;20032;52.436;13.312;2022-11-21T04:38:11;-0.20;99.90
33699;DHT22;20032;52.436;13.312;2022-11-21T04:40:37;-0.20;99.90
33699;DHT22;20032;52.436;13.312;2022-11-21T04:43:03;-0.30;99.90
33699;DHT22;20032;52.436;13.312;2022-11-21T04:45:29;-0.30;99.90
33699;DHT22;20032;52.436;13.312;2022-11-21T04:47:55;-0.30;99.90
33699;DHT22;20032;52.436;13.312;2022-11-21T04:50:21;-0.30;99.90
33699;DHT22;20032;52.436;13.312;2022-11-21T04:52:52;-0.30;99.90
33699;DHT22;20032;52.436;13.312;2022-11-21T04:55:18;-0.20;99.90
33699;DHT22;20032;52.436;13.312;2022-11-21T04:57:44;-0.30;99.90
33699;DHT22;20032;52.436;13.312;2022-11-21T05:00:10;-0.40;99.90
33699;DHT22;20032;52.436;13.312;2022-11-21T05:02:36;-0.30;99.90
33699;DHT22;20032;52.436;13.312;2022-11-21T05:05:01;-0.30;99.90
33699;DHT22;20032;52.436;13.312;2022-11-21T05:07:27;-0.30;99.90
33699;DHT22;20032;52.436;13.312;2022-11-21T05:09:52;-0.30;99.90
33699;DHT22;20032;52.436;13.312;2022-11-21T05:12:18;-0.30;99.90
33699;DHT22;20032;52.436;13.312;2022-11-21T05:15:03;-0.40;99.90
33699;DHT22;20032;52.436;13.312;2022-11-21T05:17:29;-0.30;99.90
33699;DHT22;20032;52.436;13.312;2022-11-21T05:19:55;-0.30;99.90
33699;DHT22;20032;52.436;13.312;2022-11-21T05:22:21;-0.30;99.90
33699;DHT22;20032;52.436;13.312;2022-11-21T05:24:46;-0.20;99.90
33699;DHT22;20032;52.436;13.312;2022-11-21T05:27:11;-0.10;99.90
33699;DHT22;20032;52.436;13.312;2022-11-21T05:29:37;-0.10;99.90
33699;DHT22;20032;52.436;13.312;2022-11-21T05:32:03;0.00;99.90
33699;DHT22;20032;52.436;13.312;2022-11-21T05:34:28;0.00;99.90
33699;DHT22;20032;52.436;13.312;2022-11-21T05:36:54;0.00;99.90
33699;DHT22;20032;52.436;13.312;2022-11-21T05:39:23;-0.10;99.90
33699;DHT22;20032;52.436;13.312;2022-11-21T05:41:49;0.00;99.90
33699;DHT22;20032;52.436;13.312;2022-11-21T05:44:15;0.00;99.90
33699;DHT22;20032;52.436;13.312;2022-11-21T05:46:40;0.00;99.90
33699;DHT22;20032;52.436;13.312;2022-11-21T05:49:06;0.00;99.90
33699;DHT22;20032;52.436;13.312;2022-11-21T05:51:32;0.00;99.90
33699;DHT22;20032;52.436;13.312;2022-11-21T05:53:58;0.00;99.90
33699;DHT22;20032;52.436;13.312;2022-11-21T05:56:24;0.00;99.90
33699;DHT22;20032;52.436;13.312;2022-11-21T05:58:49;0.10;99.90
33699;DHT22;20032;52.436;13.312;2022-11-21T06:01:15;0.10;99.90
33699;DHT22;20032;52.436;13.312;2022-11-21T06:04:01;0.00;99.90
33699;DHT22;20032;52.436;13.312;2022-11-21T06:06:26;0.20;99.90
33699;DHT22;20032;52.436;13.312;2022-11-21T06:08:52;0.30;99.90
33699;DHT22;20032;52.436;13.312;2022-11-21T06:11:17;0.30;99.90
33699;DHT22;20032;52.436;13.312;2022-11-21T06:13:43;0.30;99.90
33699;DHT22;20032;52.436;13.312;2022-11-21T06:16:11;0.40;99.90
33699;DHT22;20032;52.436;13.312;2022-11-21T06:18:39;0.50;99.90
33699;DHT22;20032;52.436;13.312;2022-11-21T06:21:11;0.40;99.90
33699;DHT22;20032;52.436;13.312;2022-11-21T06:23:38;0.40;99.90
33699;DHT22;20032;52.436;13.312;2022-11-21T06:26:06;0.50;99.90
33699;DHT22;20032;52.436;13.312;2022-11-21T06:28:34;0.50;99.90
33699;DHT22;20032;52.436;13.312;2022-11-21T06:31:02;0.50;99.90
33699;DHT22;20032;52.436;13.312;2022-11-21T06:33:28;0.50;99.90
33699;DHT22;20032;52.436;13.312;2022-11-21T06:35:53;0.50;99.90
33699;DHT22;20032;52.436;13.312;2022-11-21T06:38:19;0.50;99.90
33699;DHT22;20032;52.436;13.312;2022-11-21T06:40:44;0.50;99.90
33699;DHT22;20032;52.436;13.312;2022-11-21T06:43:10;0.50;99.90
33699;DHT22;20032;52.436;13.312;2022-11-21T06:45:35;0.60;99.90
33699;DHT22;20032;52.436;13.312;2022-11-21T06:48:02;0.60;99.90
33699;DHT22;20032;52.436;13.312;2022-11-21T06:50:28;0.60;99.90
33699;DHT22;20032;52.436;13.312;2022-11-21T06:52:57;0.60;99.90
33699;DHT22;20032;52.436;13.312;2022-11-21T06:55:23;0.60;99.90
33699;DHT22;20032;52.436;13.312;2022-11-21T06:57:49;0.60;99.90
33699;DHT22;20032;52.436;13.312;2022-11-21T07:00:15;0.60;99.90
33699;DHT22;20032;52.436;13.312;2022-11-21T07:02:41;0.60;99.90
33699;DHT22;20032;52.436;13.312;2022-11-21T07:05:06;0.50;99.90
33699;DHT22;20032;52.436;13.312;2022-11-21T07:07:32;0.40;99.90
33699;DHT22;20032;52.436;13.312;2022-11-21T07:09:57;0.50;99.90
33699;DHT22;20032;52.436;13.312;2022-11-21T07:12:23;0.50;99.90
33699;DHT22;20032;52.436;13.312;2022-11-21T07:15:09;0.60;99.90
33699;DHT22;20032;52.436;13.312;2022-11-21T07:17:34;0.50;99.90
33699;DHT22;20032;52.436;13.312;2022-11-21T07:20:00;0.60;99.90
33699;DHT22;20032;52.436;13.312;2022-11-21T07:22:25;0.60;99.90
33699;DHT22;20032;52.436;13.312;2022-11-21T07:24:51;0.60;99.90
33699;DHT22;20032;52.436;13.312;2022-11-21T07:27:16;0.60;99.90
33699;DHT22;20032;52.436;13.312;2022-11-21T07:29:41;0.60;99.90
33699;DHT22;20032;52.436;13.312;2022-11-21T07:32:07;0.50;99.90
33699;DHT22;20032;52.436;13.312;2022-11-21T07:34:32;0.60;99.90
33699;DHT22;20032;52.436;13.312;2022-11-21T07:36:58;0.50;99.90
33699;DHT22;20032;52.436;13.312;2022-11-21T07:39:23;0.60;99.90
33699;DHT22;20032;52.436;13.312;2022-11-21T07:41:49;0.60;99.90
33699;DHT22;20032;52.436;13.312;2022-11-21T07:44:14;0.60;99.90
33699;DHT22;20032;52.436;13.312;2022-11-21T07:46:40;0.60;99.90
33699;DHT22;20032;52.436;13.312;2022-11-21T07:49:05;0.60;99.90
33699;DHT22;20032;52.436;13.312;2022-11-21T07:51:31;0.70;99.90
33699;DHT22;20032;52.436;13.312;2022-11-21T07:53:57;0.70;99.90
33699;DHT22;20032;52.436;13.312;2022-11-21T07:56:22;0.70;99.90
33699;DHT22;20032;52.436;13.312;2022-11-21T07:58:51;0.70;99.90
33699;DHT22;20032;52.436;13.312;2022-11-21T08:01:16;0.50;99.90
33699;DHT22;20032;52.436;13.312;2022-11-21T08:03:42;0.60;99.90
33699;DHT22;20032;52.436;13.312;2022-11-21T08:06:08;0.50;99.90
33699;DHT22;20032;52.436;13.312;2022-11-21T08:08:36;0.60;99.90
33699;DHT22;20032;52.436;13.312;2022-11-21T08:11:05;0.50;99.90
33699;DHT22;20032;52.436;13.312;2022-11-21T08:13:30;0.40;99.90
33699;DHT22;20032;52.436;13.312;2022-11-21T08:15:56;0.50;99.90
33699;DHT22;20032;52.436;13.312;2022-11-21T08:18:22;0.50;99.90
33699;DHT22;20032;52.436;13.312;2022-11-21T08:20:48;0.60;99.90
33699;DHT22;20032;52.436;13.312;2022-11-21T08:23:14;0.40;99.90
33699;DHT22;20032;52.436;13.312;2022-11-21T08:25:40;0.50;99.90
33699;DHT22;20032;52.436;13.312;2022-11-21T08:28:07;0.40;99.90
33699;DHT22;20032;52.436;13.312;2022-11-21T08:30:33;0.40;99.90
33699;DHT22;20032;52.436;13.312;2022-11-21T08:32:59;0.30;99.90
33699;DHT22;20032;52.436;13.312;2022-11-21T08:35:25;0.40;99.90
33699;DHT22;20032;52.436;13.312;2022-11-21T08:37:59;0.40;99.90
33699;DHT22;20032;52.436;13.312;2022-11-21T08:40:27;0.40;99.90
33699;DHT22;20032;52.436;13.312;2022-11-21T08:43:00;0.50;99.90
33699;DHT22;20032;52.436;13.312;2022-11-21T08:45:27;0.40;99.90
33699;DHT22;20032;52.436;13.312;2022-11-21T08:47:53;0.40;99.90
33699;DHT22;20032;52.436;13.312;2022-11-21T08:50:19;0.50;99.90
33699;DHT22;20032;52.436;13.312;2022-11-21T08:52:45;0.50;99.90
33699;DHT22;20032;52.436;13.312;2022-11-21T08:55:10;0.20;99.90
33699;DHT22;20032;52.436;13.312;2022-11-21T08:57:38;0.20;99.90
33699;DHT22;20032;52.436;13.312;2022-11-21T09:00:04;0.20;99.90
33699;DHT22;20032;52.436;13.312;2022-11-21T09:02:30;0.20;99.90
33699;DHT22;20032;52.436;13.312;2022-11-21T09:04:55;0.20;99.90
33699;DHT22;20032;52.436;13.312;2022-11-21T09:07:21;0.20;99.90
33699;DHT22;20032;52.436;13.312;2022-11-21T09:09:47;0.20;99.90
33699;DHT22;20032;52.436;13.312;2022-11-21T09:12:12;0.00;99.90
33699;DHT22;20032;52.436;13.312;2022-11-21T09:14:38;0.00;99.90
33699;DHT22;20032;52.436;13.312;2022-11-21T09:17:24;-0.10;99.90
33699;DHT22;20032;52.436;13.312;2022-11-21T09:20:10;-0.10;99.90
33699;DHT22;20032;52.436;13.312;2022-11-21T09:22:35;0.00;99.90
33699;DHT22;20032;52.436;13.312;2022-11-21T09:25:01;0.00;99.90
33699;DHT22;20032;52.436;13.312;2022-11-21T09:27:26;0.00;99.90
33699;DHT22;20032;52.436;13.312;2022-11-21T09:29:52;-0.10;99.90
33699;DHT22;20032;52.436;13.312;2022-11-21T09:32:17;-0.10;99.90
33699;DHT22;20032;52.436;13.312;2022-11-21T09:34:43;-0.20;99.90
33699;DHT22;20032;52.436;13.312;2022-11-21T09:37:08;-0.30;99.90
33699;DHT22;20032;52.436;13.312;2022-11-21T09:39:34;-0.40;99.90
33699;DHT22;20032;52.436;13.312;2022-11-21T09:45:00;-0.20;99.90
33699;DHT22;20032;52.436;13.312;2022-11-21T09:47:34;-0.30;99.90
33699;DHT22;20032;52.436;13.312;2022-11-21T09:50:03;-0.20;99.90
33699;DHT22;20032;52.436;13.312;2022-11-21T09:52:36;-0.20;99.90
33699;DHT22;20032;52.436;13.312;2022-11-21T09:55:06;-0.20;99.90
33699;DHT22;20032;52.436;13.312;2022-11-21T09:57:34;-0.10;99.90
33699;DHT22;20032;52.436;13.312;2022-11-21T10:00:03;-0.10;99.90
33699;DHT22;20032;52.436;13.312;2022-11-21T10:02:33;-0.20;99.90
33699;DHT22;20032;52.436;13.312;2022-11-21T10:04:59;-0.30;99.90
33699;DHT22;20032;52.436;13.312;2022-11-21T10:07:28;-0.30;99.90
33699;DHT22;20032;52.436;13.312;2022-11-21T10:10:01;-0.20;99.90
33699;DHT22;20032;52.436;13.312;2022-11-21T10:12:48;-0.40;99.90
33699;DHT22;20032;52.436;13.312;2022-11-21T10:20:51;-0.60;99.90
33699;DHT22;20032;52.436;13.312;2022-11-21T10:26:15;-0.30;99.90
33699;DHT22;20032;52.436;13.312;2022-11-21T10:28:50;-0.30;99.90
33699;DHT22;20032;52.436;13.312;2022-11-21T10:31:18;-0.40;99.90
33699;DHT22;20032;52.436;13.312;2022-11-21T10:33:45;-0.40;99.90
33699;DHT22;20032;52.436;13.312;2022-11-21T10:36:22;-0.30;99.90
33699;DHT22;20032;52.436;13.312;2022-11-21T10:38:51;-0.30;99.90
33699;DHT22;20032;52.436;13.312;2022-11-21T10:42:29;-0.40;99.90
33699;DHT22;20032;52.436;13.312;2022-11-21T10:44:21;-0.50;99.90
33699;DHT22;20032;52.436;13.312;2022-11-21T10:47:14;-0.50;99.90
33699;DHT22;20032;52.436;13.312;2022-11-21T10:49:42;-0.60;99.90
33699;DHT22;20032;52.436;13.312;2022-11-21T10:52:13;-0.50;99.90
33699;DHT22;20032;52.436;13.312;2022-11-21T10:57:30;-0.30;99.90
33699;DHT22;20032;52.436;13.312;2022-11-21T11:00:01;-0.30;99.90
33699;DHT22;20032;52.436;13.312;2022-11-21T11:02:27;-0.30;99.90
33699;DHT22;20032;52.436;13.312;2022-11-21T11:10:36;-0.10;99.90
33699;DHT22;20032;52.436;13.312;2022-11-21T11:13:02;-0.10;99.90
33699;DHT22;20032;52.436;13.312;2022-11-21T11:16:06;0.00;99.90
33699;DHT22;20032;52.436;13.312;2022-11-21T11:18:47;0.00;99.90
33699;DHT22;20032;52.436;13.312;2022-11-21T11:21:20;0.10;99.90
33699;DHT22;20032;52.436;13.312;2022-11-21T11:23:47;0.00;99.90
33699;DHT22;20032;52.436;13.312;2022-11-21T11:26:20;0.10;99.90
33699;DHT22;20032;52.436;13.312;2022-11-21T11:28:47;0.10;99.90
33699;DHT22;20032;52.436;13.312;2022-11-21T11:31:12;0.10;99.90
33699;DHT22;20032;52.436;13.312;2022-11-21T11:33:41;0.10;99.90
33699;DHT22;20032;52.436;13.312;2022-11-21T11:37:19;-0.20;99.90
33699;DHT22;20032;52.436;13.312;2022-11-21T11:39:13;-0.20;99.90
33699;DHT22;20032;52.436;13.312;2022-11-21T11:42:05;-0.20;99.90
33699;DHT22;20032;52.436;13.312;2022-11-21T11:48:02;-0.20;99.90
33699;DHT22;20032;52.436;13.312;2022-11-21T11:50:49;-0.10;99.90
33699;DHT22;20032;52.436;13.312;2022-11-21T11:53:19;-0.10;99.90
33699;DHT22;20032;52.436;13.312;2022-11-21T11:56:48;-0.10;99.90
33699;DHT22;20032;52.436;13.312;2022-11-21T11:58:54;-0.10;99.90
33699;DHT22;20032;52.436;13.312;2022-11-21T12:01:32;-0.20;99.90
33699;DHT22;20032;52.436;13.312;2022-11-21T12:04:09;-0.10;99.90
33699;DHT22;20032;52.436;13.312;2022-11-21T12:06:44;-0.20;99.90
33699;DHT22;20032;52.436;13.312;2022-11-21T12:09:25;0.00;99.90
33699;DHT22;20032;52.436;13.312;2022-11-21T12:11:56;0.00;99.90
33699;DHT22;20032;52.436;13.312;2022-11-21T12:17:47;0.00;99.90
33699;DHT22;20032;52.436;13.312;2022-11-21T12:20:22;0.10;99.90
33699;DHT22;20032;52.436;13.312;2022-11-21T12:22:50;0.10;99.90
33699;DHT22;20032;52.436;13.312;2022-11-21T12:25:20;0.10;99.90
33699;DHT22;20032;52.436;13.312;2022-11-21T12:27:51;0.10;99.90
33699;DHT22;20032;52.436;13.312;2022-11-21T12:31:43;0.00;99.90
33699;DHT22;20032;52.436;13.312;2022-11-21T12:33:23;0.00;99.90
33699;DHT22;20032;52.436;13.312;2022-11-21T12:36:12;0.00;99.90
33699;DHT22;20032;52.436;13.312;2022-11-21T12:39:11;0.10;99.90
33699;DHT22;20032;52.436;13.312;2022-11-21T12:42:15;0.00;99.90
33699;DHT22;20032;52.436;13.312;2022-11-21T12:45:23;0.20;99.90
33699;DHT22;20032;52.436;13.312;2022-11-21T12:48:14;0.20;99.90
33699;DHT22;20032;52.436;13.312;2022-11-21T12:51:21;0.30;99.90
33699;DHT22;20032;52.436;13.312;2022-11-21T12:54:36;0.30;99.90
33699;DHT22;20032;52.436;13.312;2022-11-21T12:59:47;0.30;99.90
33699;DHT22;20032;52.436;13.312;2022-11-21T13:02:24;0.20;99.90
33699;DHT22;20032;52.436;13.312;2022-11-21T13:04:53;0.10;99.90
33699;DHT22;20032;52.436;13.312;2022-11-21T13:07:20;0.20;99.90
33699;DHT22;20032;52.436;13.312;2022-11-21T13:09:47;0.20;99.90
33699;DHT22;20032;52.436;13.312;2022-11-21T13:12:18;0.20;99.90
33699;DHT22;20032;52.436;13.312;2022-11-21T13:14:57;0.20;99.90
33699;DHT22;20032;52.436;13.312;2022-11-21T13:25:10;0.30;99.90
33699;DHT22;20032;52.436;13.312;2022-11-21T13:27:38;0.30;99.90
33699;DHT22;20032;52.436;13.312;2022-11-21T13:32:47;0.30;99.90
33699;DHT22;20032;52.436;13.312;2022-11-21T13:38:01;0.30;99.90
33699;DHT22;20032;52.436;13.312;2022-11-21T13:45:45;0.40;99.90
33699;DHT22;20032;52.436;13.312;2022-11-21T13:51:49;0.50;99.90
33699;DHT22;20032;52.436;13.312;2022-11-21T13:58:26;0.60;99.90
33699;DHT22;20032;52.436;13.312;2022-11-21T14:01:08;0.60;99.90
33699;DHT22;20032;52.436;13.312;2022-11-21T14:05:28;0.60;99.90
33699;DHT22;20032;52.436;13.312;2022-11-21T14:08:21;0.60;99.90
33699;DHT22;20032;52.436;13.312;2022-11-21T14:10:49;0.60;99.90
33699;DHT22;20032;52.436;13.312;2022-11-21T14:16:16;0.30;99.90
33699;DHT22;20032;52.436;13.312;2022-11-21T14:18:46;0.30;99.90
33699;DHT22;20032;52.436;13.312;2022-11-21T14:21:23;0.30;99.90
33699;DHT22;20032;52.436;13.312;2022-11-21T14:23:53;0.20;99.90
33699;DHT22;20032;52.436;13.312;2022-11-21T14:26:20;0.10;99.90
33699;DHT22;20032;52.436;13.312;2022-11-21T14:28:46;0.30;99.90
33699;DHT22;20032;52.436;13.312;2022-11-21T14:31:13;0.30;99.90
33699;DHT22;20032;52.436;13.312;2022-11-21T14:33:40;0.20;99.90
33699;DHT22;20032;52.436;13.312;2022-11-21T14:36:16;0.30;99.90
33699;DHT22;20032;52.436;13.312;2022-11-21T14:38:44;0.30;99.90
33699;DHT22;20032;52.436;13.312;2022-11-21T14:41:27;0.10;99.90
33699;DHT22;20032;52.436;13.312;2022-11-21T14:46:29;0.20;99.90
33699;DHT22;20032;52.436;13.312;2022-11-21T14:48:55;0.20;99.90
33699;DHT22;20032;52.436;13.312;2022-11-21T14:51:23;0.30;99.90
33699;DHT22;20032;52.436;13.312;2022-11-21T14:53:51;0.20;99.90
33699;DHT22;20032;52.436;13.312;2022-11-21T14:56:21;0.00;99.90
33699;DHT22;20032;52.436;13.312;2022-11-21T14:58:47;-0.10;99.90
33699;DHT22;20032;52.436;13.312;2022-11-21T15:01:20;-0.10;99.90
33699;DHT22;20032;52.436;13.312;2022-11-21T15:03:55;0.00;99.90
33699;DHT22;20032;52.436;13.312;2022-11-21T15:06:21;0.10;99.90
33699;DHT22;20032;52.436;13.312;2022-11-21T15:08:46;0.10;99.90
33699;DHT22;20032;52.436;13.312;2022-11-21T15:11:13;0.10;99.90
33699;DHT22;20032;52.436;13.312;2022-11-21T15:13:41;0.10;99.90
33699;DHT22;20032;52.436;13.312;2022-11-21T15:16:08;0.10;99.90
33699;DHT22;20032;52.436;13.312;2022-11-21T15:18:34;-0.20;99.90
33699;DHT22;20032;52.436;13.312;2022-11-21T15:21:03;-0.20;99.90
33699;DHT22;20032;52.436;13.312;2022-11-21T15:23:31;-0.20;99.90
33699;DHT22;20032;52.436;13.312;2022-11-21T15:26:01;-0.30;99.90
33699;DHT22;20032;52.436;13.312;2022-11-21T15:28:27;-0.20;99.90
33699;DHT22;20032;52.436;13.312;2022-11-21T15:31:17;-0.20;99.90
33699;DHT22;20032;52.436;13.312;2022-11-21T15:34:03;-0.20;99.90
33699;DHT22;20032;52.436;13.312;2022-11-21T15:36:30;-0.20;99.90
33699;DHT22;20032;52.436;13.312;2022-11-21T15:39:02;-0.20;99.90
33699;DHT22;20032;52.436;13.312;2022-11-21T15:41:32;-0.20;99.90
33699;DHT22;20032;52.436;13.312;2022-11-21T15:46:32;-0.10;99.90
33699;DHT22;20032;52.436;13.312;2022-11-21T15:49:01;-0.10;99.90
33699;DHT22;20032;52.436;13.312;2022-11-21T15:51:37;-0.20;99.90
33699;DHT22;20032;52.436;13.312;2022-11-21T15:54:05;-0.10;99.90
33699;DHT22;20032;52.436;13.312;2022-11-21T15:56:31;-0.10;99.90
33699;DHT22;20032;52.436;13.312;2022-11-21T15:58:56;0.00;99.90
33699;DHT22;20032;52.436;13.312;2022-11-21T16:01:24;-0.10;99.90
33699;DHT22;20032;52.436;13.312;2022-11-21T16:03:51;0.00;99.90
33699;DHT22;20032;52.436;13.312;2022-11-21T16:06:18;0.00;99.90
33699;DHT22;20032;52.436;13.312;2022-11-21T16:08:44;0.00;99.90
33699;DHT22;20032;52.436;13.312;2022-11-21T16:11:21;-0.10;99.90
33699;DHT22;20032;52.436;13.312;2022-11-21T16:13:48;-0.20;99.90
33699;DHT22;20032;52.436;13.312;2022-11-21T16:16:14;-0.10;99.90
33699;DHT22;20032;52.436;13.312;2022-11-21T16:18:40;-0.20;99.90
33699;DHT22;20032;52.436;13.312;2022-11-21T16:21:07;-0.20;99.90
33699;DHT22;20032;52.436;13.312;2022-11-21T16:23:33;-0.20;99.90
33699;DHT22;20032;52.436;13.312;2022-11-21T16:25:59;-0.20;99.90
33699;DHT22;20032;52.436;13.312;2022-11-21T16:28:25;-0.20;99.90
33699;DHT22;20032;52.436;13.312;2022-11-21T16:30:51;-0.20;99.90
33699;DHT22;20032;52.436;13.312;2022-11-21T16:33:17;-0.30;99.90
33699;DHT22;20032;52.436;13.312;2022-11-21T16:35:42;-0.30;99.90
33699;DHT22;20032;52.436;13.312;2022-11-21T16:38:09;-0.30;99.90
33699;DHT22;20032;52.436;13.312;2022-11-21T16:40:35;-0.30;99.90
33699;DHT22;20032;52.436;13.312;2022-11-21T16:43:11;-0.40;99.90
33699;DHT22;20032;52.436;13.312;2022-11-21T16:45:37;-0.30;99.90
33699;DHT22;20032;52.436;13.312;2022-11-21T16:48:04;-0.30;99.90
33699;DHT22;20032;52.436;13.312;2022-11-21T16:50:30;-0.40;99.90
33699;DHT22;20032;52.436;13.312;2022-11-21T16:52:56;-0.40;99.90